DAL17 MMUN-KBOS
Flight info
| Callsign | DAL17 |
|---|---|
| Flight time | 3h 37m |
| Altitude | 37000 |
| Route | OMSUK2A OMSUK UM219 MYDIA M219 CIGAR DCT KNOST DCT CAMJO Q109 TEEEM Q99 POLYY DCT DADDS Q87 GEARS DCT BBOBO Q22 RBV Q419 JFK ROBUC3 |
| Aircraft | A20N/M-SDE2E3FGHIRWXY/LB1 |
Departure
| Time | 2026-05-06 19:16 |
|---|---|
| Airport | Cancún International Airport (MMUN) |
Arrival
| Time | 2026-05-06 22:53 |
|---|---|
| Airport | Boston Logan International Airport (KBOS) |
| Time | Latitude | Longitude | Altitude | Speed | Heading |
|---|---|---|---|---|---|
| 2026-05-06 18:52 | 21.03630 | -86.87036 | 29 ft | 0 kts | 34° |
| 2026-05-06 19:05 | 21.03629 | -86.87037 | 29 ft | 1 kts | 34° |
| 2026-05-06 19:06 | 21.03615 | -86.87047 | 43 ft | 3 kts | 32° |
| 2026-05-06 19:06 | 21.03604 | -86.87054 | 29 ft | 3 kts | 30° |
| 2026-05-06 19:06 | 21.03585 | -86.87065 | 29 ft | 3 kts | 24° |
| 2026-05-06 19:06 | 21.03566 | -86.87073 | 29 ft | 3 kts | 8° |
| 2026-05-06 19:07 | 21.03548 | -86.87073 | 29 ft | 3 kts | 325° |
| 2026-05-06 19:07 | 21.03543 | -86.87068 | 29 ft | 0 kts | 304° |
| 2026-05-06 19:09 | 21.03543 | -86.87069 | 29 ft | 1 kts | 304° |
| 2026-05-06 19:10 | 21.03552 | -86.87083 | 29 ft | 5 kts | 304° |
| 2026-05-06 19:10 | 21.03588 | -86.87140 | 29 ft | 12 kts | 304° |
| 2026-05-06 19:10 | 21.03642 | -86.87226 | 29 ft | 15 kts | 304° |
| 2026-05-06 19:10 | 21.03657 | -86.87332 | 30 ft | 16 kts | 235° |
| 2026-05-06 19:11 | 21.03673 | -86.87415 | 31 ft | 11 kts | 302° |
| 2026-05-06 19:11 | 21.03723 | -86.87495 | 31 ft | 14 kts | 303° |
| 2026-05-06 19:11 | 21.03783 | -86.87592 | 30 ft | 17 kts | 303° |
| 2026-05-06 19:11 | 21.03854 | -86.87702 | 30 ft | 19 kts | 304° |
| 2026-05-06 19:12 | 21.03933 | -86.87828 | 30 ft | 22 kts | 304° |
| 2026-05-06 19:12 | 21.04020 | -86.87969 | 30 ft | 23 kts | 303° |
| 2026-05-06 19:12 | 21.04092 | -86.88084 | 30 ft | 12 kts | 304° |
| 2026-05-06 19:12 | 21.04146 | -86.88169 | 30 ft | 15 kts | 304° |
| 2026-05-06 19:13 | 21.04207 | -86.88267 | 30 ft | 17 kts | 304° |
| 2026-05-06 19:13 | 21.04277 | -86.88378 | 30 ft | 19 kts | 303° |
| 2026-05-06 19:13 | 21.04354 | -86.88503 | 30 ft | 21 kts | 303° |
| 2026-05-06 19:13 | 21.04441 | -86.88637 | 30 ft | 23 kts | 304° |
| 2026-05-06 19:14 | 21.04519 | -86.88762 | 30 ft | 20 kts | 304° |
| 2026-05-06 19:14 | 21.04601 | -86.88893 | 30 ft | 22 kts | 304° |
| 2026-05-06 19:14 | 21.04637 | -86.89003 | 30 ft | 12 kts | 243° |
| 2026-05-06 19:14 | 21.04568 | -86.89054 | 31 ft | 12 kts | 210° |
| 2026-05-06 19:15 | 21.04507 | -86.89055 | 32 ft | 8 kts | 136° |
| 2026-05-06 19:15 | 21.04473 | -86.88999 | 32 ft | 14 kts | 123° |
| 2026-05-06 19:15 | 21.04298 | -86.88722 | 34 ft | 78 kts | 123° |
| 2026-05-06 19:15 | 21.03887 | -86.88064 | 33 ft | 133 kts | 123° |
| 2026-05-06 19:16 | 21.03291 | -86.87122 | 254 ft | 158 kts | 125° |
| 2026-05-06 19:16 | 21.02672 | -86.86123 | 675 ft | 164 kts | 125° |
| 2026-05-06 19:16 | 21.02084 | -86.85139 | 1444 ft | 151 kts | 124° |
| 2026-05-06 19:16 | 21.01506 | -86.84175 | 1939 ft | 164 kts | 123° |
| 2026-05-06 19:17 | 21.00834 | -86.83074 | 2327 ft | 185 kts | 123° |
| 2026-05-06 19:17 | 21.00096 | -86.81873 | 2824 ft | 198 kts | 123° |
| 2026-05-06 19:17 | 20.99325 | -86.80621 | 3453 ft | 206 kts | 123° |
| 2026-05-06 19:17 | 20.98534 | -86.79312 | 4130 ft | 214 kts | 119° |
| 2026-05-06 19:18 | 20.98168 | -86.77706 | 4558 ft | 238 kts | 89° |
| 2026-05-06 19:18 | 20.98670 | -86.75929 | 4928 ft | 266 kts | 61° |
| 2026-05-06 19:18 | 20.99967 | -86.74454 | 5585 ft | 279 kts | 39° |
| 2026-05-06 19:18 | 21.01732 | -86.73532 | 6353 ft | 287 kts | 17° |
| 2026-05-06 19:19 | 21.03729 | -86.73377 | 7120 ft | 292 kts | 354° |
| 2026-05-06 19:19 | 21.05741 | -86.73820 | 7798 ft | 298 kts | 345° |
| 2026-05-06 19:19 | 21.07677 | -86.74628 | 8589 ft | 300 kts | 335° |
| 2026-05-06 19:19 | 21.09474 | -86.75794 | 9288 ft | 306 kts | 325° |
| 2026-05-06 19:20 | 21.11068 | -86.77310 | 9966 ft | 311 kts | 315° |
| 2026-05-06 19:20 | 21.12445 | -86.79167 | 10263 ft | 328 kts | 308° |
| 2026-05-06 19:20 | 21.14084 | -86.80942 | 10445 ft | 343 kts | 327° |
| 2026-05-06 19:20 | 21.16266 | -86.82034 | 10703 ft | 350 kts | 349° |
| 2026-05-06 19:21 | 21.18696 | -86.82182 | 11240 ft | 348 kts | 11° |
| 2026-05-06 19:21 | 21.21055 | -86.81685 | 11848 ft | 349 kts | 14° |
| 2026-05-06 19:21 | 21.23436 | -86.81142 | 12469 ft | 350 kts | 14° |
| 2026-05-06 19:21 | 21.25828 | -86.80590 | 13086 ft | 354 kts | 14° |
| 2026-05-06 19:22 | 21.28247 | -86.80033 | 13693 ft | 356 kts | 14° |
| 2026-05-06 19:22 | 21.30673 | -86.79477 | 14239 ft | 358 kts | 13° |
| 2026-05-06 19:22 | 21.33124 | -86.78918 | 14785 ft | 360 kts | 14° |
| 2026-05-06 19:22 | 21.35581 | -86.78356 | 15314 ft | 363 kts | 13° |
| 2026-05-06 19:23 | 21.38058 | -86.77790 | 15844 ft | 364 kts | 14° |
| 2026-05-06 19:23 | 21.40548 | -86.77219 | 16326 ft | 368 kts | 13° |
| 2026-05-06 19:23 | 21.43025 | -86.76653 | 16849 ft | 369 kts | 13° |
| 2026-05-06 19:23 | 21.45553 | -86.76075 | 17297 ft | 374 kts | 13° |
| 2026-05-06 19:24 | 21.48099 | -86.75493 | 17839 ft | 375 kts | 13° |
| 2026-05-06 19:24 | 21.50664 | -86.74905 | 18281 ft | 378 kts | 13° |
| 2026-05-06 19:24 | 21.53240 | -86.74314 | 18728 ft | 380 kts | 14° |
| 2026-05-06 19:24 | 21.55843 | -86.73717 | 19085 ft | 384 kts | 13° |
| 2026-05-06 19:25 | 21.58462 | -86.73117 | 19528 ft | 386 kts | 13° |
| 2026-05-06 19:25 | 21.61102 | -86.72512 | 19901 ft | 389 kts | 14° |
| 2026-05-06 19:25 | 21.63755 | -86.71904 | 20307 ft | 392 kts | 13° |
| 2026-05-06 19:25 | 21.66435 | -86.71288 | 20716 ft | 394 kts | 14° |
| 2026-05-06 19:26 | 21.69131 | -86.70668 | 21065 ft | 399 kts | 14° |
| 2026-05-06 19:26 | 21.71848 | -86.70043 | 21509 ft | 400 kts | 14° |
| 2026-05-06 19:26 | 21.74590 | -86.69412 | 21847 ft | 405 kts | 14° |
| 2026-05-06 19:26 | 21.77349 | -86.68780 | 22277 ft | 406 kts | 13° |
| 2026-05-06 19:27 | 21.80135 | -86.68143 | 22644 ft | 410 kts | 14° |
| 2026-05-06 19:27 | 21.82936 | -86.67497 | 23018 ft | 414 kts | 13° |
| 2026-05-06 19:27 | 21.85759 | -86.66846 | 23417 ft | 416 kts | 14° |
| 2026-05-06 19:27 | 21.88568 | -86.66198 | 23717 ft | 420 kts | 13° |
| 2026-05-06 19:28 | 21.91434 | -86.65541 | 24060 ft | 422 kts | 13° |
| 2026-05-06 19:28 | 21.94320 | -86.64876 | 24382 ft | 425 kts | 13° |
| 2026-05-06 19:28 | 21.97224 | -86.64206 | 24696 ft | 428 kts | 13° |
| 2026-05-06 19:28 | 22.00142 | -86.63534 | 25009 ft | 430 kts | 13° |
| 2026-05-06 19:29 | 22.03077 | -86.62858 | 25316 ft | 433 kts | 12° |
| 2026-05-06 19:29 | 22.06031 | -86.62176 | 25616 ft | 435 kts | 12° |
| 2026-05-06 19:29 | 22.09000 | -86.61491 | 25914 ft | 438 kts | 12° |
| 2026-05-06 19:29 | 22.11988 | -86.60799 | 26198 ft | 440 kts | 12° |
| 2026-05-06 19:30 | 22.14993 | -86.60104 | 26484 ft | 443 kts | 11° |
| 2026-05-06 19:30 | 22.18014 | -86.59406 | 26790 ft | 445 kts | 11° |
| 2026-05-06 19:30 | 22.21054 | -86.58704 | 27056 ft | 448 kts | 11° |
| 2026-05-06 19:30 | 22.24107 | -86.57997 | 27336 ft | 450 kts | 11° |
| 2026-05-06 19:31 | 22.27175 | -86.57288 | 27629 ft | 452 kts | 11° |
| 2026-05-06 19:31 | 22.30259 | -86.56572 | 27884 ft | 454 kts | 11° |
| 2026-05-06 19:31 | 22.36410 | -86.55145 | 28466 ft | 457 kts | 10° |
| 2026-05-06 19:32 | 22.39567 | -86.54413 | 28704 ft | 460 kts | 11° |
| 2026-05-06 19:32 | 22.42660 | -86.53697 | 28981 ft | 461 kts | 10° |
| 2026-05-06 19:32 | 22.45801 | -86.52969 | 29235 ft | 463 kts | 10° |
| 2026-05-06 19:32 | 22.48958 | -86.52238 | 29492 ft | 465 kts | 10° |
| 2026-05-06 19:33 | 22.52126 | -86.51504 | 29737 ft | 467 kts | 10° |
| 2026-05-06 19:33 | 22.55312 | -86.50765 | 29990 ft | 469 kts | 9° |
| 2026-05-06 19:33 | 22.58510 | -86.50022 | 30216 ft | 470 kts | 9° |
| 2026-05-06 19:33 | 22.61712 | -86.49279 | 30460 ft | 471 kts | 9° |
| 2026-05-06 19:34 | 22.64914 | -86.48534 | 30700 ft | 473 kts | 9° |
| 2026-05-06 19:34 | 22.68142 | -86.47784 | 30939 ft | 474 kts | 9° |
| 2026-05-06 19:34 | 22.71370 | -86.47033 | 31218 ft | 474 kts | 9° |
| 2026-05-06 19:34 | 22.74589 | -86.46283 | 31544 ft | 474 kts | 9° |
| 2026-05-06 19:35 | 22.77818 | -86.45530 | 31868 ft | 473 kts | 9° |
| 2026-05-06 19:35 | 22.81027 | -86.44782 | 32196 ft | 471 kts | 9° |
| 2026-05-06 19:35 | 22.84221 | -86.44037 | 32521 ft | 470 kts | 9° |
| 2026-05-06 19:35 | 22.87419 | -86.43291 | 32838 ft | 469 kts | 9° |
| 2026-05-06 19:36 | 22.90611 | -86.42546 | 33151 ft | 468 kts | 9° |
| 2026-05-06 19:36 | 22.93791 | -86.41803 | 33455 ft | 467 kts | 9° |
| 2026-05-06 19:36 | 22.96960 | -86.41063 | 33745 ft | 466 kts | 9° |
| 2026-05-06 19:36 | 23.00129 | -86.40322 | 34021 ft | 465 kts | 9° |
| 2026-05-06 19:37 | 23.03291 | -86.39583 | 34258 ft | 464 kts | 9° |
| 2026-05-06 19:37 | 23.06446 | -86.38845 | 34481 ft | 463 kts | 9° |
| 2026-05-06 19:37 | 23.09589 | -86.38109 | 34732 ft | 462 kts | 9° |
| 2026-05-06 19:37 | 23.11671 | -86.37621 | 34874 ft | 461 kts | 9° |
| 2026-05-06 19:38 | 23.15866 | -86.36638 | 35135 ft | 461 kts | 9° |
| 2026-05-06 19:38 | 23.19003 | -86.35903 | 35332 ft | 460 kts | 9° |
| 2026-05-06 19:38 | 23.22095 | -86.35178 | 35525 ft | 460 kts | 9° |
| 2026-05-06 19:38 | 23.25223 | -86.34444 | 35719 ft | 459 kts | 9° |
| 2026-05-06 19:39 | 23.28343 | -86.33711 | 35913 ft | 459 kts | 9° |
| 2026-05-06 19:39 | 23.30451 | -86.33216 | 36031 ft | 459 kts | 9° |
| 2026-05-06 19:39 | 23.34582 | -86.32246 | 36269 ft | 458 kts | 9° |
| 2026-05-06 19:39 | 23.36684 | -86.31752 | 36377 ft | 458 kts | 9° |
| 2026-05-06 19:40 | 23.39790 | -86.31021 | 36563 ft | 457 kts | 9° |
| 2026-05-06 19:40 | 23.42905 | -86.30288 | 36725 ft | 457 kts | 9° |
| 2026-05-06 19:40 | 23.45970 | -86.29567 | 36880 ft | 456 kts | 9° |
| 2026-05-06 19:40 | 23.49077 | -86.28835 | 37009 ft | 456 kts | 9° |
| 2026-05-06 19:41 | 23.55281 | -86.27373 | 37010 ft | 455 kts | 9° |
| 2026-05-06 19:41 | 23.61507 | -86.25904 | 37010 ft | 455 kts | 9° |
| 2026-05-06 19:42 | 23.67700 | -86.24442 | 37010 ft | 455 kts | 9° |
| 2026-05-06 19:42 | 23.73894 | -86.22977 | 37013 ft | 456 kts | 8° |
| 2026-05-06 19:43 | 23.80104 | -86.21508 | 37020 ft | 457 kts | 8° |
| 2026-05-06 19:43 | 23.86331 | -86.20034 | 37012 ft | 457 kts | 8° |
| 2026-05-06 19:44 | 23.92532 | -86.18562 | 37018 ft | 456 kts | 8° |
| 2026-05-06 19:44 | 23.98728 | -86.17092 | 37013 ft | 455 kts | 8° |
| 2026-05-06 19:45 | 24.04791 | -86.15030 | 37013 ft | 461 kts | 19° |
| 2026-05-06 19:45 | 24.10505 | -86.11829 | 37015 ft | 465 kts | 26° |
| 2026-05-06 19:46 | 24.16137 | -86.08348 | 37012 ft | 464 kts | 25° |
| 2026-05-06 19:46 | 24.21762 | -86.04875 | 37012 ft | 464 kts | 26° |
| 2026-05-06 19:47 | 24.27388 | -86.01389 | 37009 ft | 464 kts | 26° |
| 2026-05-06 19:47 | 24.33007 | -85.97901 | 37008 ft | 463 kts | 26° |
| 2026-05-06 19:48 | 24.38595 | -85.94429 | 37004 ft | 464 kts | 25° |
| 2026-05-06 19:48 | 24.44209 | -85.90937 | 37000 ft | 464 kts | 26° |
| 2026-05-06 19:49 | 24.49831 | -85.87436 | 37008 ft | 464 kts | 26° |
| 2026-05-06 19:49 | 24.55451 | -85.83933 | 37009 ft | 464 kts | 26° |
| 2026-05-06 19:50 | 24.61074 | -85.80425 | 37010 ft | 465 kts | 26° |
| 2026-05-06 19:50 | 24.66706 | -85.76907 | 37014 ft | 465 kts | 26° |
| 2026-05-06 19:51 | 24.72338 | -85.73385 | 37021 ft | 466 kts | 26° |
| 2026-05-06 19:51 | 24.77978 | -85.69855 | 37026 ft | 467 kts | 26° |
| 2026-05-06 19:52 | 24.83627 | -85.66316 | 37029 ft | 467 kts | 26° |
| 2026-05-06 19:52 | 24.89286 | -85.62766 | 37032 ft | 468 kts | 26° |
| 2026-05-06 19:53 | 24.94910 | -85.59235 | 37043 ft | 468 kts | 26° |
| 2026-05-06 19:53 | 25.00571 | -85.55675 | 37035 ft | 469 kts | 25° |
| 2026-05-06 19:54 | 25.06237 | -85.52110 | 37034 ft | 469 kts | 25° |
| 2026-05-06 19:54 | 25.11908 | -85.48539 | 37035 ft | 469 kts | 25° |
| 2026-05-06 19:55 | 25.17573 | -85.44966 | 37035 ft | 469 kts | 25° |
| 2026-05-06 19:55 | 25.23237 | -85.41389 | 37035 ft | 468 kts | 25° |
| 2026-05-06 19:56 | 25.28870 | -85.37829 | 37031 ft | 467 kts | 24° |
| 2026-05-06 19:56 | 25.34806 | -85.35052 | 37032 ft | 460 kts | 11° |
| 2026-05-06 19:57 | 25.41022 | -85.33790 | 37031 ft | 451 kts | 360° |
| 2026-05-06 19:57 | 25.47260 | -85.33161 | 37031 ft | 452 kts | 0° |
| 2026-05-06 19:58 | 25.53523 | -85.32508 | 37031 ft | 452 kts | 0° |
| 2026-05-06 19:58 | 25.59783 | -85.31862 | 37039 ft | 452 kts | 0° |
| 2026-05-06 19:59 | 25.66045 | -85.31218 | 37040 ft | 451 kts | 0° |
| 2026-05-06 19:59 | 25.72305 | -85.30575 | 37044 ft | 451 kts | 0° |
| 2026-05-06 20:00 | 25.78561 | -85.29931 | 37039 ft | 451 kts | 0° |
| 2026-05-06 20:00 | 25.84825 | -85.29285 | 37029 ft | 451 kts | 0° |
| 2026-05-06 20:01 | 25.91035 | -85.28644 | 37035 ft | 451 kts | 360° |
| 2026-05-06 20:01 | 25.97291 | -85.27997 | 37035 ft | 451 kts | 360° |
| 2026-05-06 20:02 | 26.03544 | -85.27351 | 37040 ft | 451 kts | 360° |
| 2026-05-06 20:02 | 26.09793 | -85.26704 | 37042 ft | 451 kts | 360° |
| 2026-05-06 20:03 | 26.16048 | -85.26057 | 37043 ft | 451 kts | 360° |
| 2026-05-06 20:03 | 26.22300 | -85.25408 | 37049 ft | 451 kts | 360° |
| 2026-05-06 20:04 | 26.28556 | -85.24759 | 37045 ft | 451 kts | 360° |
| 2026-05-06 20:04 | 26.34813 | -85.24094 | 37049 ft | 452 kts | 2° |
| 2026-05-06 20:05 | 26.41018 | -85.22593 | 37043 ft | 460 kts | 12° |
| 2026-05-06 20:05 | 26.47066 | -85.20170 | 37045 ft | 462 kts | 14° |
| 2026-05-06 20:06 | 26.53085 | -85.17741 | 37048 ft | 462 kts | 14° |
| 2026-05-06 20:06 | 26.59128 | -85.15295 | 37047 ft | 462 kts | 14° |
| 2026-05-06 20:07 | 26.65181 | -85.12835 | 37046 ft | 462 kts | 14° |
| 2026-05-06 20:07 | 26.71225 | -85.10375 | 37048 ft | 462 kts | 14° |
| 2026-05-06 20:08 | 26.77263 | -85.07914 | 37049 ft | 462 kts | 14° |
| 2026-05-06 20:08 | 26.83307 | -85.05449 | 37052 ft | 462 kts | 14° |
| 2026-05-06 20:09 | 26.89349 | -85.02981 | 37060 ft | 462 kts | 14° |
| 2026-05-06 20:09 | 26.95350 | -85.00528 | 37060 ft | 462 kts | 14° |
| 2026-05-06 20:10 | 27.01383 | -84.98058 | 37057 ft | 461 kts | 14° |
| 2026-05-06 20:10 | 27.07414 | -84.95587 | 37057 ft | 461 kts | 14° |
| 2026-05-06 20:11 | 27.13437 | -84.93115 | 37056 ft | 461 kts | 14° |
| 2026-05-06 20:11 | 27.19459 | -84.90642 | 37055 ft | 461 kts | 14° |
| 2026-05-06 20:12 | 27.25478 | -84.88167 | 37052 ft | 460 kts | 14° |
| 2026-05-06 20:12 | 27.31496 | -84.85690 | 37051 ft | 460 kts | 14° |
| 2026-05-06 20:13 | 27.37511 | -84.83211 | 37046 ft | 460 kts | 14° |
| 2026-05-06 20:13 | 27.43501 | -84.80635 | 37054 ft | 465 kts | 20° |
| 2026-05-06 20:14 | 27.46305 | -84.78754 | 37048 ft | 473 kts | 31° |
| 2026-05-06 20:14 | 27.48777 | -84.76341 | 37056 ft | 481 kts | 41° |
| 2026-05-06 20:14 | 27.50890 | -84.73388 | 37045 ft | 488 kts | 53° |
| 2026-05-06 20:14 | 27.52515 | -84.70011 | 37037 ft | 494 kts | 64° |
| 2026-05-06 20:15 | 27.55195 | -84.62882 | 37052 ft | 494 kts | 63° |
| 2026-05-06 20:15 | 27.57894 | -84.55742 | 37048 ft | 495 kts | 63° |
| 2026-05-06 20:16 | 27.60591 | -84.48594 | 37044 ft | 495 kts | 63° |
| 2026-05-06 20:16 | 27.63267 | -84.41486 | 37053 ft | 495 kts | 63° |
| 2026-05-06 20:17 | 27.65958 | -84.34322 | 37055 ft | 496 kts | 63° |
| 2026-05-06 20:17 | 27.68645 | -84.27155 | 37065 ft | 496 kts | 63° |
| 2026-05-06 20:18 | 27.71333 | -84.19974 | 37064 ft | 497 kts | 63° |
| 2026-05-06 20:18 | 27.74021 | -84.12777 | 37064 ft | 497 kts | 63° |
| 2026-05-06 20:19 | 27.76704 | -84.05583 | 37063 ft | 497 kts | 63° |
| 2026-05-06 20:19 | 27.79384 | -83.98383 | 37064 ft | 497 kts | 63° |
| 2026-05-06 20:20 | 27.82060 | -83.91179 | 37065 ft | 497 kts | 63° |
| 2026-05-06 20:20 | 27.84706 | -83.84041 | 37053 ft | 495 kts | 63° |
| 2026-05-06 20:21 | 27.87364 | -83.76862 | 37061 ft | 495 kts | 63° |
| 2026-05-06 20:21 | 27.90023 | -83.69664 | 37057 ft | 495 kts | 63° |
| 2026-05-06 20:22 | 27.92676 | -83.62470 | 37058 ft | 496 kts | 63° |
| 2026-05-06 20:22 | 27.95331 | -83.55255 | 37063 ft | 498 kts | 63° |
| 2026-05-06 20:23 | 27.97690 | -83.49335 | 37067 ft | 490 kts | 53° |
| 2026-05-06 20:23 | 27.99646 | -83.46245 | 37056 ft | 481 kts | 42° |
| 2026-05-06 20:23 | 28.02042 | -83.43649 | 37058 ft | 472 kts | 31° |
| 2026-05-06 20:24 | 28.04756 | -83.41623 | 37061 ft | 462 kts | 20° |
| 2026-05-06 20:24 | 28.07668 | -83.40198 | 37060 ft | 452 kts | 10° |
| 2026-05-06 20:24 | 28.14688 | -83.38144 | 37055 ft | 448 kts | 7° |
| 2026-05-06 20:25 | 28.19719 | -83.36700 | 37050 ft | 448 kts | 7° |
| 2026-05-06 20:25 | 28.25768 | -83.34956 | 37056 ft | 448 kts | 7° |
| 2026-05-06 20:26 | 28.31804 | -83.33216 | 37059 ft | 448 kts | 7° |
| 2026-05-06 20:26 | 28.37850 | -83.31472 | 37057 ft | 448 kts | 7° |
| 2026-05-06 20:27 | 28.43890 | -83.29728 | 37054 ft | 447 kts | 7° |
| 2026-05-06 20:27 | 28.49923 | -83.27983 | 37072 ft | 447 kts | 7° |
| 2026-05-06 20:28 | 28.55965 | -83.26234 | 37054 ft | 448 kts | 6° |
| 2026-05-06 20:28 | 28.62003 | -83.24484 | 37055 ft | 448 kts | 6° |
| 2026-05-06 20:29 | 28.68047 | -83.22730 | 37054 ft | 448 kts | 6° |
| 2026-05-06 20:29 | 28.74093 | -83.20974 | 37054 ft | 448 kts | 6° |
| 2026-05-06 20:30 | 28.83117 | -83.18346 | 37060 ft | 448 kts | 6° |
| 2026-05-06 20:31 | 28.89168 | -83.16583 | 37062 ft | 449 kts | 6° |
| 2026-05-06 20:31 | 28.95216 | -83.14818 | 37067 ft | 449 kts | 6° |
| 2026-05-06 20:32 | 29.01264 | -83.13051 | 37067 ft | 449 kts | 6° |
| 2026-05-06 20:32 | 29.07319 | -83.11280 | 37084 ft | 449 kts | 6° |
| 2026-05-06 20:33 | 29.13376 | -83.09505 | 37066 ft | 449 kts | 6° |
| 2026-05-06 20:33 | 29.19429 | -83.07730 | 37069 ft | 449 kts | 6° |
| 2026-05-06 20:34 | 29.25477 | -83.05955 | 37069 ft | 449 kts | 6° |
| 2026-05-06 20:34 | 29.31530 | -83.04176 | 37066 ft | 449 kts | 6° |
| 2026-05-06 20:35 | 29.37579 | -83.02396 | 37065 ft | 449 kts | 6° |
| 2026-05-06 20:35 | 29.43629 | -83.00613 | 37059 ft | 449 kts | 6° |
| 2026-05-06 20:36 | 29.49686 | -82.98826 | 37060 ft | 449 kts | 6° |
| 2026-05-06 20:36 | 29.55710 | -82.97047 | 37074 ft | 449 kts | 6° |
| 2026-05-06 20:37 | 29.61772 | -82.95254 | 37076 ft | 449 kts | 6° |
| 2026-05-06 20:37 | 29.67833 | -82.93459 | 37073 ft | 450 kts | 5° |
| 2026-05-06 20:38 | 29.73899 | -82.91661 | 37072 ft | 450 kts | 5° |
| 2026-05-06 20:38 | 29.79974 | -82.89858 | 37072 ft | 451 kts | 5° |
| 2026-05-06 20:39 | 29.86055 | -82.88051 | 37065 ft | 451 kts | 5° |
| 2026-05-06 20:39 | 29.92135 | -82.86242 | 37098 ft | 451 kts | 5° |
| 2026-05-06 20:40 | 29.98239 | -82.84422 | 37064 ft | 453 kts | 5° |
| 2026-05-06 20:40 | 30.04296 | -82.82615 | 37061 ft | 453 kts | 5° |
| 2026-05-06 20:41 | 30.10395 | -82.80793 | 37063 ft | 453 kts | 5° |
| 2026-05-06 20:41 | 30.16494 | -82.78969 | 37062 ft | 453 kts | 5° |
| 2026-05-06 20:42 | 30.22593 | -82.77143 | 37057 ft | 452 kts | 5° |
| 2026-05-06 20:42 | 30.28664 | -82.75321 | 37080 ft | 451 kts | 5° |
| 2026-05-06 20:43 | 30.34749 | -82.73496 | 37100 ft | 452 kts | 5° |
| 2026-05-06 20:43 | 30.40832 | -82.71667 | 37097 ft | 452 kts | 5° |
| 2026-05-06 20:44 | 30.46916 | -82.69836 | 37130 ft | 452 kts | 5° |
| 2026-05-06 20:44 | 30.53007 | -82.68176 | 37131 ft | 446 kts | 0° |
| 2026-05-06 20:45 | 30.59116 | -82.66890 | 37121 ft | 446 kts | 0° |
| 2026-05-06 20:45 | 30.65222 | -82.65588 | 37125 ft | 446 kts | 1° |
| 2026-05-06 20:46 | 30.71295 | -82.64291 | 37127 ft | 446 kts | 1° |
| 2026-05-06 20:46 | 30.77415 | -82.62984 | 37109 ft | 447 kts | 0° |
| 2026-05-06 20:47 | 30.83526 | -82.61677 | 37113 ft | 447 kts | 0° |
| 2026-05-06 20:47 | 30.89644 | -82.60367 | 37101 ft | 447 kts | 0° |
| 2026-05-06 20:48 | 30.95764 | -82.59054 | 37066 ft | 447 kts | 0° |
| 2026-05-06 20:48 | 31.01886 | -82.57740 | 37059 ft | 447 kts | 0° |
| 2026-05-06 20:49 | 31.07950 | -82.56080 | 37056 ft | 458 kts | 8° |
| 2026-05-06 20:49 | 31.13902 | -82.53116 | 37061 ft | 472 kts | 18° |
| 2026-05-06 20:50 | 31.19723 | -82.49575 | 37025 ft | 471 kts | 17° |
| 2026-05-06 20:50 | 31.25550 | -82.46050 | 37024 ft | 471 kts | 18° |
| 2026-05-06 20:51 | 31.31372 | -82.42513 | 37035 ft | 472 kts | 17° |
| 2026-05-06 20:51 | 31.37166 | -82.38984 | 37025 ft | 472 kts | 17° |
| 2026-05-06 20:52 | 31.42992 | -82.35430 | 37041 ft | 472 kts | 17° |
| 2026-05-06 20:52 | 31.48816 | -82.31872 | 37036 ft | 472 kts | 17° |
| 2026-05-06 20:53 | 31.54638 | -82.28310 | 37035 ft | 472 kts | 17° |
| 2026-05-06 20:53 | 31.60462 | -82.24742 | 37037 ft | 472 kts | 17° |
| 2026-05-06 20:54 | 31.66284 | -82.21171 | 37027 ft | 472 kts | 17° |
| 2026-05-06 20:54 | 31.72108 | -82.17593 | 37027 ft | 472 kts | 17° |
| 2026-05-06 20:55 | 31.77915 | -82.14020 | 37026 ft | 472 kts | 17° |
| 2026-05-06 20:55 | 31.83731 | -82.10436 | 37050 ft | 472 kts | 17° |
| 2026-05-06 20:56 | 31.89554 | -82.06843 | 37023 ft | 472 kts | 17° |
| 2026-05-06 20:56 | 31.95327 | -82.03277 | 37019 ft | 472 kts | 17° |
| 2026-05-06 20:57 | 32.01140 | -81.99680 | 37014 ft | 472 kts | 17° |
| 2026-05-06 20:57 | 32.06948 | -81.96082 | 37018 ft | 472 kts | 17° |
| 2026-05-06 20:58 | 32.12763 | -81.92473 | 37024 ft | 472 kts | 17° |
| 2026-05-06 20:58 | 32.18595 | -81.88933 | 37023 ft | 470 kts | 15° |
| 2026-05-06 20:59 | 32.24455 | -81.85534 | 37022 ft | 469 kts | 15° |
| 2026-05-06 20:59 | 32.30312 | -81.82117 | 37021 ft | 469 kts | 15° |
| 2026-05-06 21:00 | 32.36165 | -81.78678 | 37034 ft | 469 kts | 15° |
| 2026-05-06 21:00 | 32.41977 | -81.75254 | 36990 ft | 468 kts | 15° |
| 2026-05-06 21:01 | 32.47811 | -81.71814 | 36992 ft | 468 kts | 15° |
| 2026-05-06 21:01 | 32.53639 | -81.68372 | 36990 ft | 468 kts | 15° |
| 2026-05-06 21:02 | 32.59469 | -81.64923 | 36999 ft | 468 kts | 15° |
| 2026-05-06 21:02 | 32.65223 | -81.61507 | 37008 ft | 463 kts | 14° |
| 2026-05-06 21:03 | 32.71053 | -81.58052 | 37008 ft | 465 kts | 14° |
| 2026-05-06 21:03 | 32.76843 | -81.54615 | 36998 ft | 465 kts | 14° |
| 2026-05-06 21:04 | 32.82628 | -81.51172 | 36994 ft | 465 kts | 14° |
| 2026-05-06 21:04 | 32.88410 | -81.47727 | 37001 ft | 466 kts | 14° |
| 2026-05-06 21:05 | 32.94166 | -81.44293 | 36985 ft | 466 kts | 14° |
| 2026-05-06 21:05 | 32.99957 | -81.40832 | 36986 ft | 466 kts | 14° |
| 2026-05-06 21:06 | 33.05758 | -81.37360 | 37003 ft | 466 kts | 14° |
| 2026-05-06 21:06 | 33.11557 | -81.33884 | 36991 ft | 466 kts | 14° |
| 2026-05-06 21:07 | 33.17356 | -81.30403 | 36992 ft | 466 kts | 14° |
| 2026-05-06 21:07 | 33.23151 | -81.26919 | 36985 ft | 466 kts | 14° |
| 2026-05-06 21:08 | 33.28919 | -81.23442 | 36987 ft | 463 kts | 14° |
| 2026-05-06 21:08 | 33.34648 | -81.19991 | 36984 ft | 464 kts | 14° |
| 2026-05-06 21:09 | 33.40420 | -81.16507 | 36991 ft | 466 kts | 14° |
| 2026-05-06 21:09 | 33.46203 | -81.13009 | 36979 ft | 465 kts | 14° |
| 2026-05-06 21:10 | 33.51985 | -81.09506 | 36970 ft | 465 kts | 14° |
| 2026-05-06 21:10 | 33.57766 | -81.05999 | 36971 ft | 466 kts | 14° |
| 2026-05-06 21:11 | 33.63545 | -81.02488 | 37008 ft | 466 kts | 14° |
| 2026-05-06 21:11 | 33.68397 | -80.99538 | 36978 ft | 467 kts | 14° |
| 2026-05-06 21:12 | 33.74157 | -80.96028 | 36978 ft | 467 kts | 14° |
| 2026-05-06 21:12 | 33.79950 | -80.92494 | 36959 ft | 467 kts | 14° |
| 2026-05-06 21:13 | 33.85672 | -80.88702 | 36941 ft | 476 kts | 21° |
| 2026-05-06 21:13 | 33.91025 | -80.83839 | 36952 ft | 485 kts | 26° |
| 2026-05-06 21:14 | 33.96360 | -80.78851 | 36953 ft | 485 kts | 26° |
| 2026-05-06 21:14 | 34.01688 | -80.73860 | 36948 ft | 485 kts | 26° |
| 2026-05-06 21:15 | 34.07008 | -80.68856 | 36948 ft | 485 kts | 26° |
| 2026-05-06 21:15 | 34.12333 | -80.63839 | 37019 ft | 486 kts | 26° |
| 2026-05-06 21:16 | 34.17641 | -80.58830 | 36981 ft | 488 kts | 26° |
| 2026-05-06 21:16 | 34.22993 | -80.53770 | 36987 ft | 489 kts | 26° |
| 2026-05-06 21:17 | 34.28310 | -80.48754 | 36992 ft | 482 kts | 25° |
| 2026-05-06 21:17 | 34.33660 | -80.43846 | 36990 ft | 483 kts | 25° |
| 2026-05-06 21:18 | 34.39028 | -80.38915 | 36994 ft | 486 kts | 25° |
| 2026-05-06 21:18 | 34.44401 | -80.33951 | 36983 ft | 486 kts | 25° |
| 2026-05-06 21:19 | 34.49767 | -80.28979 | 36990 ft | 486 kts | 25° |
| 2026-05-06 21:19 | 34.55137 | -80.23997 | 36987 ft | 486 kts | 25° |
| 2026-05-06 21:20 | 34.60506 | -80.19010 | 37004 ft | 487 kts | 25° |
| 2026-05-06 21:20 | 34.65854 | -80.14034 | 36981 ft | 487 kts | 25° |
| 2026-05-06 21:21 | 34.71225 | -80.09028 | 36985 ft | 487 kts | 25° |
| 2026-05-06 21:21 | 34.76604 | -80.04024 | 36979 ft | 487 kts | 25° |
| 2026-05-06 21:22 | 34.81784 | -79.98587 | 36974 ft | 502 kts | 36° |
| 2026-05-06 21:22 | 34.86328 | -79.91995 | 36957 ft | 511 kts | 40° |
| 2026-05-06 21:23 | 34.90819 | -79.85288 | 36958 ft | 511 kts | 40° |
| 2026-05-06 21:23 | 34.95271 | -79.78630 | 36962 ft | 511 kts | 40° |
| 2026-05-06 21:24 | 34.99744 | -79.71916 | 36980 ft | 508 kts | 40° |
| 2026-05-06 21:24 | 35.04204 | -79.65215 | 36944 ft | 509 kts | 40° |
| 2026-05-06 21:25 | 35.08676 | -79.58485 | 36943 ft | 513 kts | 40° |
| 2026-05-06 21:25 | 35.13164 | -79.51710 | 36943 ft | 512 kts | 40° |
| 2026-05-06 21:26 | 35.17642 | -79.44935 | 36969 ft | 512 kts | 41° |
| 2026-05-06 21:26 | 35.22104 | -79.38171 | 36971 ft | 509 kts | 40° |
| 2026-05-06 21:27 | 35.26540 | -79.31437 | 36971 ft | 509 kts | 40° |
| 2026-05-06 21:27 | 35.30967 | -79.24712 | 36979 ft | 513 kts | 40° |
| 2026-05-06 21:28 | 35.35433 | -79.17903 | 36981 ft | 512 kts | 40° |
| 2026-05-06 21:28 | 35.39892 | -79.11094 | 36969 ft | 512 kts | 40° |
| 2026-05-06 21:29 | 35.44352 | -79.04272 | 36968 ft | 512 kts | 40° |
| 2026-05-06 21:29 | 35.48766 | -78.97495 | 36966 ft | 506 kts | 40° |
| 2026-05-06 21:30 | 35.53182 | -78.90720 | 36964 ft | 508 kts | 40° |
| 2026-05-06 21:30 | 35.57539 | -78.84037 | 36968 ft | 505 kts | 38° |
| 2026-05-06 21:31 | 35.62308 | -78.78397 | 36969 ft | 484 kts | 25° |
| 2026-05-06 21:31 | 35.65028 | -78.76055 | 36963 ft | 473 kts | 19° |
| 2026-05-06 21:31 | 35.67856 | -78.74054 | 36968 ft | 468 kts | 16° |
| 2026-05-06 21:32 | 35.73541 | -78.70109 | 36954 ft | 470 kts | 16° |
| 2026-05-06 21:32 | 35.82074 | -78.64154 | 36979 ft | 470 kts | 16° |
| 2026-05-06 21:33 | 35.87790 | -78.60162 | 36977 ft | 470 kts | 16° |
| 2026-05-06 21:33 | 35.93493 | -78.56174 | 36987 ft | 470 kts | 16° |
| 2026-05-06 21:34 | 35.99184 | -78.52187 | 36970 ft | 471 kts | 16° |
| 2026-05-06 21:34 | 36.04878 | -78.48192 | 36969 ft | 471 kts | 16° |
| 2026-05-06 21:35 | 36.10573 | -78.44190 | 36970 ft | 471 kts | 16° |
| 2026-05-06 21:35 | 36.16279 | -78.40172 | 36972 ft | 472 kts | 16° |
| 2026-05-06 21:36 | 36.21992 | -78.36144 | 36963 ft | 473 kts | 16° |
| 2026-05-06 21:36 | 36.27708 | -78.32106 | 36964 ft | 473 kts | 16° |
| 2026-05-06 21:37 | 36.33398 | -78.28079 | 36965 ft | 473 kts | 16° |
| 2026-05-06 21:37 | 36.38959 | -78.23441 | 36960 ft | 492 kts | 27° |
| 2026-05-06 21:38 | 36.44053 | -78.17590 | 36958 ft | 500 kts | 31° |
| 2026-05-06 21:38 | 36.49115 | -78.11653 | 36956 ft | 500 kts | 31° |
| 2026-05-06 21:39 | 36.54173 | -78.05708 | 36951 ft | 500 kts | 31° |
| 2026-05-06 21:39 | 36.59228 | -77.99747 | 36991 ft | 500 kts | 31° |
| 2026-05-06 21:40 | 36.64253 | -77.93809 | 36992 ft | 501 kts | 31° |
| 2026-05-06 21:40 | 36.69306 | -77.87827 | 36986 ft | 501 kts | 31° |
| 2026-05-06 21:41 | 36.74360 | -77.81831 | 36974 ft | 501 kts | 31° |
| 2026-05-06 21:41 | 36.79411 | -77.75826 | 36948 ft | 501 kts | 31° |
| 2026-05-06 21:42 | 36.84457 | -77.69824 | 36961 ft | 501 kts | 31° |
| 2026-05-06 21:42 | 36.89513 | -77.63801 | 36923 ft | 502 kts | 31° |
| 2026-05-06 21:43 | 36.94566 | -77.57768 | 36926 ft | 502 kts | 32° |
| 2026-05-06 21:43 | 36.99609 | -77.51735 | 36938 ft | 502 kts | 32° |
| 2026-05-06 21:44 | 37.04620 | -77.45728 | 36938 ft | 502 kts | 32° |
| 2026-05-06 21:44 | 37.09914 | -77.40237 | 36918 ft | 482 kts | 19° |
| 2026-05-06 21:45 | 37.12786 | -77.38192 | 36918 ft | 469 kts | 12° |
| 2026-05-06 21:45 | 37.15747 | -77.36612 | 36917 ft | 456 kts | 5° |
| 2026-05-06 21:45 | 37.21721 | -77.34041 | 36919 ft | 454 kts | 5° |
| 2026-05-06 21:46 | 37.27703 | -77.31440 | 36940 ft | 455 kts | 5° |
| 2026-05-06 21:46 | 37.33702 | -77.28830 | 36894 ft | 457 kts | 5° |
| 2026-05-06 21:47 | 37.39706 | -77.26214 | 36897 ft | 457 kts | 5° |
| 2026-05-06 21:47 | 37.45726 | -77.23588 | 36902 ft | 458 kts | 5° |
| 2026-05-06 21:48 | 37.51728 | -77.20966 | 36896 ft | 460 kts | 5° |
| 2026-05-06 21:48 | 37.57817 | -77.18302 | 36905 ft | 461 kts | 5° |
| 2026-05-06 21:49 | 37.63841 | -77.15660 | 36908 ft | 462 kts | 5° |
| 2026-05-06 21:49 | 37.69889 | -77.12765 | 36912 ft | 474 kts | 12° |
| 2026-05-06 21:50 | 37.75783 | -77.08764 | 36914 ft | 482 kts | 15° |
| 2026-05-06 21:50 | 37.81654 | -77.04710 | 36903 ft | 479 kts | 15° |
| 2026-05-06 21:51 | 37.87518 | -77.00656 | 36907 ft | 480 kts | 15° |
| 2026-05-06 21:51 | 37.93383 | -76.96586 | 36934 ft | 481 kts | 15° |
| 2026-05-06 21:52 | 37.99309 | -76.92472 | 36884 ft | 487 kts | 15° |
| 2026-05-06 21:52 | 38.05203 | -76.88359 | 36884 ft | 486 kts | 15° |
| 2026-05-06 21:53 | 38.11119 | -76.84225 | 36881 ft | 483 kts | 15° |
| 2026-05-06 21:53 | 38.17009 | -76.80104 | 36884 ft | 487 kts | 15° |
| 2026-05-06 21:54 | 38.22968 | -76.75883 | 36875 ft | 494 kts | 19° |
| 2026-05-06 21:54 | 38.25830 | -76.73389 | 36880 ft | 505 kts | 26° |
| 2026-05-06 21:54 | 38.28553 | -76.70513 | 36879 ft | 511 kts | 29° |
| 2026-05-06 21:55 | 38.33055 | -76.65636 | 36877 ft | 511 kts | 28° |
| 2026-05-06 21:55 | 38.38482 | -76.59782 | 36880 ft | 512 kts | 28° |
| 2026-05-06 21:56 | 38.43921 | -76.53897 | 36883 ft | 513 kts | 28° |
| 2026-05-06 21:56 | 38.49382 | -76.48042 | 36881 ft | 510 kts | 28° |
| 2026-05-06 21:57 | 38.54801 | -76.42223 | 36872 ft | 509 kts | 28° |
| 2026-05-06 21:57 | 38.60224 | -76.36386 | 36876 ft | 510 kts | 28° |
| 2026-05-06 21:58 | 38.65648 | -76.30531 | 36871 ft | 510 kts | 28° |
| 2026-05-06 21:58 | 38.71033 | -76.24706 | 36873 ft | 510 kts | 28° |
| 2026-05-06 21:59 | 38.76483 | -76.18798 | 36921 ft | 510 kts | 28° |
| 2026-05-06 21:59 | 38.81874 | -76.12944 | 36877 ft | 510 kts | 28° |
| 2026-05-06 22:00 | 38.87284 | -76.07057 | 36883 ft | 510 kts | 28° |
| 2026-05-06 22:00 | 38.92694 | -76.01153 | 36880 ft | 510 kts | 28° |
| 2026-05-06 22:01 | 38.98083 | -75.95207 | 36858 ft | 514 kts | 30° |
| 2026-05-06 22:01 | 39.03340 | -75.88908 | 36842 ft | 517 kts | 32° |
| 2026-05-06 22:02 | 39.08588 | -75.82577 | 36841 ft | 516 kts | 31° |
| 2026-05-06 22:02 | 39.13848 | -75.76280 | 36858 ft | 516 kts | 31° |
| 2026-05-06 22:03 | 39.19122 | -75.69966 | 36833 ft | 518 kts | 31° |
| 2026-05-06 22:03 | 39.24401 | -75.63635 | 36840 ft | 518 kts | 31° |
| 2026-05-06 22:04 | 39.29648 | -75.57326 | 36843 ft | 519 kts | 31° |
| 2026-05-06 22:04 | 39.34937 | -75.50954 | 36910 ft | 520 kts | 31° |
| 2026-05-06 22:05 | 39.40228 | -75.44565 | 36853 ft | 521 kts | 31° |
| 2026-05-06 22:05 | 39.45525 | -75.38157 | 36847 ft | 519 kts | 31° |
| 2026-05-06 22:06 | 39.50795 | -75.31764 | 36849 ft | 519 kts | 31° |
| 2026-05-06 22:06 | 39.56037 | -75.25393 | 36843 ft | 520 kts | 31° |
| 2026-05-06 22:07 | 39.61340 | -75.18934 | 36845 ft | 520 kts | 31° |
| 2026-05-06 22:07 | 39.66573 | -75.12546 | 36849 ft | 520 kts | 31° |
| 2026-05-06 22:08 | 39.71919 | -75.06280 | 36831 ft | 515 kts | 28° |
| 2026-05-06 22:08 | 39.77354 | -75.00271 | 36843 ft | 512 kts | 28° |
| 2026-05-06 22:09 | 39.82758 | -74.94226 | 36848 ft | 513 kts | 29° |
| 2026-05-06 22:09 | 39.88144 | -74.88133 | 36850 ft | 513 kts | 29° |
| 2026-05-06 22:10 | 39.93761 | -74.82588 | 36853 ft | 503 kts | 22° |
| 2026-05-06 22:10 | 39.99484 | -74.77326 | 36853 ft | 504 kts | 22° |
| 2026-05-06 22:11 | 40.04985 | -74.71434 | 36842 ft | 521 kts | 34° |
| 2026-05-06 22:11 | 40.09909 | -74.64387 | 36819 ft | 526 kts | 37° |
| 2026-05-06 22:12 | 40.14846 | -74.57296 | 36820 ft | 527 kts | 37° |
| 2026-05-06 22:12 | 40.19772 | -74.50280 | 36819 ft | 522 kts | 33° |
| 2026-05-06 22:13 | 40.22449 | -74.47144 | 36816 ft | 511 kts | 26° |
| 2026-05-06 22:13 | 40.25215 | -74.44222 | 36832 ft | 511 kts | 26° |
| 2026-05-06 22:13 | 40.30736 | -74.38324 | 36846 ft | 513 kts | 27° |
| 2026-05-06 22:14 | 40.36257 | -74.32409 | 36843 ft | 512 kts | 27° |
| 2026-05-06 22:14 | 40.41772 | -74.26485 | 36834 ft | 512 kts | 27° |
| 2026-05-06 22:15 | 40.47272 | -74.20567 | 36891 ft | 512 kts | 27° |
| 2026-05-06 22:15 | 40.52633 | -74.14400 | 36835 ft | 527 kts | 38° |
| 2026-05-06 22:16 | 40.54870 | -74.10477 | 36823 ft | 543 kts | 51° |
| 2026-05-06 22:16 | 40.56578 | -74.05992 | 36827 ft | 554 kts | 63° |
| 2026-05-06 22:16 | 40.58908 | -73.96270 | 36842 ft | 557 kts | 69° |
| 2026-05-06 22:17 | 40.61137 | -73.86508 | 36853 ft | 557 kts | 68° |
| 2026-05-06 22:17 | 40.64050 | -73.77188 | 36845 ft | 543 kts | 51° |
| 2026-05-06 22:18 | 40.66141 | -73.73116 | 36846 ft | 531 kts | 42° |
| 2026-05-06 22:18 | 40.68513 | -73.69517 | 36846 ft | 524 kts | 37° |
| 2026-05-06 22:18 | 40.73428 | -73.62348 | 36852 ft | 524 kts | 38° |
| 2026-05-06 22:19 | 40.78301 | -73.55194 | 36830 ft | 524 kts | 38° |
| 2026-05-06 22:19 | 40.83179 | -73.48023 | 36828 ft | 525 kts | 38° |
| 2026-05-06 22:20 | 40.88022 | -73.40885 | 36831 ft | 525 kts | 38° |
| 2026-05-06 22:20 | 40.92898 | -73.33680 | 36837 ft | 526 kts | 38° |
| 2026-05-06 22:21 | 40.97767 | -73.26469 | 36867 ft | 525 kts | 38° |
| 2026-05-06 22:21 | 41.02637 | -73.19243 | 36839 ft | 526 kts | 38° |
| 2026-05-06 22:22 | 41.07509 | -73.11992 | 36841 ft | 526 kts | 38° |
| 2026-05-06 22:22 | 41.12363 | -73.04751 | 36844 ft | 526 kts | 39° |
| 2026-05-06 22:23 | 41.17222 | -72.97490 | 36832 ft | 527 kts | 39° |
| 2026-05-06 22:23 | 41.21760 | -72.89792 | 36830 ft | 536 kts | 52° |
| 2026-05-06 22:24 | 41.25220 | -72.80914 | 36832 ft | 542 kts | 56° |
| 2026-05-06 22:24 | 41.28645 | -72.71966 | 36833 ft | 542 kts | 56° |
| 2026-05-06 22:25 | 41.32061 | -72.63015 | 36839 ft | 544 kts | 57° |
| 2026-05-06 22:25 | 41.35465 | -72.54047 | 36840 ft | 540 kts | 57° |
| 2026-05-06 22:26 | 41.38829 | -72.45160 | 36840 ft | 541 kts | 57° |
| 2026-05-06 22:26 | 41.42211 | -72.36202 | 36842 ft | 541 kts | 57° |
| 2026-05-06 22:27 | 41.45587 | -72.27231 | 36843 ft | 541 kts | 57° |
| 2026-05-06 22:27 | 41.48939 | -72.18276 | 36841 ft | 537 kts | 58° |
| 2026-05-06 22:28 | 41.52225 | -72.09298 | 36840 ft | 539 kts | 58° |
| 2026-05-06 22:28 | 41.55491 | -72.00299 | 36840 ft | 540 kts | 60° |
| 2026-05-06 22:29 | 41.58309 | -71.90981 | 36420 ft | 538 kts | 63° |
| 2026-05-06 22:29 | 41.59706 | -71.86320 | 35485 ft | 540 kts | 64° |
| 2026-05-06 22:29 | 41.61099 | -71.81651 | 34412 ft | 544 kts | 64° |
| 2026-05-06 22:30 | 41.62497 | -71.76931 | 33135 ft | 549 kts | 65° |
| 2026-05-06 22:30 | 41.63903 | -71.72167 | 31938 ft | 551 kts | 65° |
| 2026-05-06 22:30 | 41.65290 | -71.67443 | 31289 ft | 540 kts | 66° |
| 2026-05-06 22:30 | 41.66652 | -71.62800 | 30572 ft | 532 kts | 66° |
| 2026-05-06 22:31 | 41.67982 | -71.58265 | 30240 ft | 515 kts | 66° |
| 2026-05-06 22:31 | 41.69270 | -71.53861 | 29730 ft | 502 kts | 66° |
| 2026-05-06 22:31 | 41.70531 | -71.49543 | 29028 ft | 494 kts | 66° |
| 2026-05-06 22:31 | 41.71774 | -71.45285 | 28304 ft | 488 kts | 66° |
| 2026-05-06 22:32 | 41.73210 | -71.41230 | 27601 ft | 477 kts | 56° |
| 2026-05-06 22:32 | 41.74857 | -71.37414 | 26912 ft | 470 kts | 56° |
| 2026-05-06 22:32 | 41.76477 | -71.33635 | 26252 ft | 463 kts | 56° |
| 2026-05-06 22:32 | 41.78066 | -71.29914 | 25602 ft | 457 kts | 57° |
| 2026-05-06 22:33 | 41.79629 | -71.26245 | 24975 ft | 450 kts | 57° |
| 2026-05-06 22:33 | 41.81173 | -71.22617 | 24357 ft | 444 kts | 57° |
| 2026-05-06 22:33 | 41.82692 | -71.19045 | 23756 ft | 438 kts | 57° |
| 2026-05-06 22:33 | 41.84187 | -71.15526 | 23165 ft | 430 kts | 57° |
| 2026-05-06 22:34 | 41.85644 | -71.12091 | 22759 ft | 418 kts | 58° |
| 2026-05-06 22:34 | 41.87082 | -71.08737 | 22100 ft | 413 kts | 58° |
| 2026-05-06 22:34 | 41.88520 | -71.05420 | 21387 ft | 410 kts | 58° |
| 2026-05-06 22:34 | 41.89952 | -71.02120 | 20726 ft | 407 kts | 58° |
| 2026-05-06 22:35 | 41.91352 | -70.98887 | 20092 ft | 404 kts | 58° |
| 2026-05-06 22:35 | 41.92778 | -70.95587 | 19465 ft | 401 kts | 59° |
| 2026-05-06 22:35 | 41.94171 | -70.92352 | 18857 ft | 399 kts | 59° |
| 2026-05-06 22:35 | 41.95557 | -70.89130 | 18263 ft | 397 kts | 59° |
| 2026-05-06 22:36 | 41.96927 | -70.85938 | 17652 ft | 392 kts | 59° |
| 2026-05-06 22:36 | 41.98279 | -70.82784 | 17042 ft | 388 kts | 59° |
| 2026-05-06 22:36 | 41.99606 | -70.79687 | 16421 ft | 385 kts | 59° |
| 2026-05-06 22:36 | 42.00997 | -70.76572 | 15807 ft | 382 kts | 53° |
| 2026-05-06 22:37 | 42.02687 | -70.73847 | 15181 ft | 377 kts | 45° |
| 2026-05-06 22:37 | 42.04439 | -70.71250 | 14596 ft | 374 kts | 45° |
| 2026-05-06 22:37 | 42.05592 | -70.69528 | 14204 ft | 372 kts | 45° |
| 2026-05-06 22:37 | 42.07316 | -70.66945 | 13626 ft | 370 kts | 46° |
| 2026-05-06 22:38 | 42.09021 | -70.64383 | 13020 ft | 366 kts | 46° |
| 2026-05-06 22:38 | 42.10898 | -70.62150 | 12378 ft | 356 kts | 25° |
| 2026-05-06 22:38 | 42.13139 | -70.60967 | 11741 ft | 340 kts | 4° |
| 2026-05-06 22:38 | 42.15443 | -70.60323 | 11149 ft | 336 kts | 4° |
| 2026-05-06 22:39 | 42.17726 | -70.59697 | 10648 ft | 331 kts | 4° |
| 2026-05-06 22:39 | 42.19968 | -70.59079 | 10108 ft | 327 kts | 4° |
| 2026-05-06 22:39 | 42.22178 | -70.58468 | 9513 ft | 325 kts | 5° |
| 2026-05-06 22:39 | 42.24398 | -70.57851 | 8868 ft | 322 kts | 5° |
| 2026-05-06 22:40 | 42.26593 | -70.57239 | 8241 ft | 320 kts | 5° |
| 2026-05-06 22:40 | 42.28765 | -70.56632 | 7673 ft | 318 kts | 5° |
| 2026-05-06 22:40 | 42.30919 | -70.56080 | 7123 ft | 310 kts | 357° |
| 2026-05-06 22:40 | 42.33009 | -70.56398 | 6492 ft | 291 kts | 331° |
| 2026-05-06 22:41 | 42.35996 | -70.59544 | 5280 ft | 267 kts | 304° |
| 2026-05-06 22:41 | 42.37222 | -70.61347 | 5076 ft | 257 kts | 303° |
| 2026-05-06 22:41 | 42.38452 | -70.63135 | 5005 ft | 261 kts | 305° |
| 2026-05-06 22:42 | 42.39722 | -70.64887 | 5007 ft | 260 kts | 307° |
| 2026-05-06 22:42 | 42.41012 | -70.66621 | 4996 ft | 262 kts | 307° |
| 2026-05-06 22:42 | 42.42311 | -70.68343 | 4989 ft | 261 kts | 307° |
| 2026-05-06 22:42 | 42.43606 | -70.70045 | 4941 ft | 259 kts | 308° |
| 2026-05-06 22:43 | 42.44897 | -70.71742 | 4631 ft | 259 kts | 308° |
| 2026-05-06 22:43 | 42.46194 | -70.73456 | 4226 ft | 260 kts | 308° |
| 2026-05-06 22:43 | 42.47493 | -70.75159 | 3856 ft | 258 kts | 308° |
| 2026-05-06 22:43 | 42.48773 | -70.76836 | 3739 ft | 259 kts | 308° |
| 2026-05-06 22:44 | 42.50073 | -70.78552 | 3893 ft | 261 kts | 308° |
| 2026-05-06 22:44 | 42.51378 | -70.80257 | 4024 ft | 263 kts | 311° |
| 2026-05-06 22:44 | 42.53051 | -70.81440 | 4037 ft | 277 kts | 339° |
| 2026-05-06 22:44 | 42.55002 | -70.81460 | 4159 ft | 291 kts | 6° |
| 2026-05-06 22:45 | 42.56963 | -70.80593 | 4100 ft | 299 kts | 18° |
| 2026-05-06 22:45 | 42.58851 | -70.79462 | 3710 ft | 293 kts | 20° |
| 2026-05-06 22:45 | 42.60696 | -70.78365 | 3263 ft | 285 kts | 13° |
| 2026-05-06 22:45 | 42.62589 | -70.78066 | 2830 ft | 266 kts | 344° |
| 2026-05-06 22:46 | 42.64211 | -70.78915 | 2493 ft | 238 kts | 313° |
| 2026-05-06 22:46 | 42.65126 | -70.80535 | 2372 ft | 207 kts | 279° |
| 2026-05-06 22:46 | 42.65154 | -70.82421 | 2383 ft | 195 kts | 247° |
| 2026-05-06 22:46 | 42.64514 | -70.84019 | 2348 ft | 196 kts | 236° |
| 2026-05-06 22:47 | 42.63782 | -70.85553 | 2160 ft | 193 kts | 236° |
| 2026-05-06 22:47 | 42.62982 | -70.87017 | 2006 ft | 193 kts | 224° |
| 2026-05-06 22:47 | 42.61892 | -70.88058 | 1988 ft | 196 kts | 210° |
| 2026-05-06 22:47 | 42.60593 | -70.88831 | 1976 ft | 203 kts | 202° |
| 2026-05-06 22:48 | 42.59290 | -70.89449 | 1976 ft | 202 kts | 202° |
| 2026-05-06 22:48 | 42.57947 | -70.90097 | 1969 ft | 204 kts | 202° |
| 2026-05-06 22:48 | 42.56629 | -70.90740 | 1976 ft | 197 kts | 202° |
| 2026-05-06 22:48 | 42.55338 | -70.91369 | 1980 ft | 199 kts | 202° |
| 2026-05-06 22:49 | 42.54015 | -70.92014 | 1980 ft | 206 kts | 202° |
| 2026-05-06 22:49 | 42.52674 | -70.92664 | 1976 ft | 202 kts | 202° |
| 2026-05-06 22:49 | 42.51353 | -70.93306 | 1974 ft | 198 kts | 202° |
| 2026-05-06 22:49 | 42.50057 | -70.93938 | 1979 ft | 201 kts | 203° |
| 2026-05-06 22:50 | 42.48746 | -70.94573 | 1975 ft | 198 kts | 203° |
| 2026-05-06 22:50 | 42.47447 | -70.95205 | 1976 ft | 196 kts | 202° |
| 2026-05-06 22:50 | 42.46214 | -70.95803 | 1912 ft | 183 kts | 202° |
| 2026-05-06 22:50 | 42.45053 | -70.96367 | 1681 ft | 169 kts | 201° |
| 2026-05-06 22:51 | 42.44014 | -70.96870 | 1455 ft | 150 kts | 201° |
| 2026-05-06 22:51 | 42.43055 | -70.97336 | 1251 ft | 138 kts | 201° |
| 2026-05-06 22:51 | 42.42198 | -70.97750 | 1057 ft | 123 kts | 200° |
| 2026-05-06 22:51 | 42.41421 | -70.98129 | 896 ft | 120 kts | 202° |
| 2026-05-06 22:52 | 42.40640 | -70.98507 | 734 ft | 117 kts | 199° |
| 2026-05-06 22:52 | 42.39868 | -70.98879 | 570 ft | 119 kts | 200° |
| 2026-05-06 22:52 | 42.39100 | -70.99250 | 426 ft | 119 kts | 199° |
| 2026-05-06 22:52 | 42.38336 | -70.99618 | 237 ft | 113 kts | 200° |
| 2026-05-06 22:53 | 42.37572 | -70.99993 | 98 ft | 120 kts | 199° |
| 2026-05-06 22:53 | 42.36804 | -71.00372 | 40 ft | 111 kts | 199° |
| 2026-05-06 22:53 | 42.36184 | -71.00664 | 25 ft | 58 kts | 199° |
| 2026-05-06 22:53 | 42.36009 | -71.00767 | 27 ft | 13 kts | 228° |
| 2026-05-06 22:54 | 42.35941 | -71.00873 | 29 ft | 17 kts | 232° |
| 2026-05-06 22:54 | 42.35874 | -71.00987 | 27 ft | 11 kts | 230° |
| 2026-05-06 22:54 | 42.35831 | -71.01077 | 27 ft | 12 kts | 256° |
| 2026-05-06 22:54 | 42.35840 | -71.01201 | 28 ft | 15 kts | 280° |
| 2026-05-06 22:55 | 42.35856 | -71.01347 | 25 ft | 16 kts | 277° |
| 2026-05-06 22:55 | 42.35874 | -71.01483 | 27 ft | 12 kts | 281° |
| 2026-05-06 22:55 | 42.35880 | -71.01522 | 27 ft | 0 kts | 281° |
| 2026-05-06 22:56 | 42.35881 | -71.01528 | 26 ft | 2 kts | 281° |
| 2026-05-06 22:56 | 42.35881 | -71.01531 | 26 ft | 0 kts | 281° |
| 2026-05-06 22:56 | 42.35882 | -71.01534 | 26 ft | 1 kts | 291° |
| 2026-05-06 22:57 | 42.35906 | -71.01542 | 25 ft | 8 kts | 3° |
| 2026-05-06 22:57 | 42.35982 | -71.01505 | 26 ft | 14 kts | 20° |
| 2026-05-06 22:57 | 42.36076 | -71.01459 | 28 ft | 17 kts | 20° |
| 2026-05-06 22:57 | 42.36194 | -71.01402 | 25 ft | 18 kts | 20° |
| 2026-05-06 22:58 | 42.36301 | -71.01351 | 25 ft | 15 kts | 19° |
| 2026-05-06 22:58 | 42.36389 | -71.01309 | 27 ft | 8 kts | 20° |
| 2026-05-06 22:58 | 42.36435 | -71.01287 | 26 ft | 5 kts | 20° |
| 2026-05-06 22:58 | 42.36447 | -71.01281 | 25 ft | 1 kts | 20° |
| 2026-05-06 22:59 | 42.36464 | -71.01273 | 27 ft | 4 kts | 20° |
| 2026-05-06 22:59 | 42.36503 | -71.01254 | 25 ft | 8 kts | 20° |
| 2026-05-06 22:59 | 42.36566 | -71.01224 | 26 ft | 11 kts | 20° |
| 2026-05-06 22:59 | 42.36651 | -71.01182 | 26 ft | 15 kts | 20° |
| 2026-05-06 23:00 | 42.36760 | -71.01143 | 25 ft | 18 kts | 357° |
| 2026-05-06 23:00 | 42.36845 | -71.01224 | 25 ft | 14 kts | 313° |
| 2026-05-06 23:00 | 42.36926 | -71.01329 | 25 ft | 18 kts | 317° |
| 2026-05-06 23:00 | 42.37015 | -71.01450 | 25 ft | 18 kts | 316° |
| 2026-05-06 23:01 | 42.37034 | -71.01560 | 27 ft | 9 kts | 244° |
| 2026-05-06 23:01 | 42.36986 | -71.01585 | 27 ft | 8 kts | 205° |
| 2026-05-06 23:01 | 42.36964 | -71.01640 | 25 ft | 7 kts | 284° |
| 2026-05-06 23:01 | 42.36977 | -71.01696 | 26 ft | 5 kts | 288° |
| 2026-05-06 23:02 | 42.36982 | -71.01715 | 28 ft | 2 kts | 289° |
| 2026-05-06 23:02 | 42.36983 | -71.01719 | 28 ft | 0 kts | 289° |